sensor_id;sensor_type;location;lat;lon;timestamp;P1;durP1;ratioP1;P2;durP2;ratioP2
19113;SDS011;9689;51.052;13.772;2023-07-24T00:03:27;5.55;;;3.05;;
19113;SDS011;9689;51.052;13.772;2023-07-24T00:08:28;4.97;;;2.90;;
19113;SDS011;9689;51.052;13.772;2023-07-24T00:13:29;8.65;;;2.97;;
19113;SDS011;9689;51.052;13.772;2023-07-24T00:18:31;6.30;;;3.17;;
19113;SDS011;9689;51.052;13.772;2023-07-24T00:23:32;4.65;;;3.05;;
19113;SDS011;9689;51.052;13.772;2023-07-24T00:28:33;5.03;;;2.80;;
19113;SDS011;9689;51.052;13.772;2023-07-24T00:33:35;5.10;;;2.83;;
19113;SDS011;9689;51.052;13.772;2023-07-24T00:38:36;4.57;;;3.17;;
19113;SDS011;9689;51.052;13.772;2023-07-24T00:43:37;4.25;;;2.92;;
19113;SDS011;9689;51.052;13.772;2023-07-24T00:48:39;4.80;;;2.45;;
19113;SDS011;9689;51.052;13.772;2023-07-24T00:53:40;7.68;;;3.35;;
19113;SDS011;9689;51.052;13.772;2023-07-24T00:58:41;4.15;;;2.83;;
19113;SDS011;9689;51.052;13.772;2023-07-24T01:03:44;3.63;;;2.63;;
19113;SDS011;9689;51.052;13.772;2023-07-24T01:08:45;6.25;;;3.10;;
19113;SDS011;9689;51.052;13.772;2023-07-24T01:13:47;5.18;;;2.80;;
19113;SDS011;9689;51.052;13.772;2023-07-24T01:18:55;6.22;;;2.88;;
19113;SDS011;9689;51.052;13.772;2023-07-24T01:23:58;5.47;;;2.80;;
19113;SDS011;9689;51.052;13.772;2023-07-24T01:29:11;5.00;;;3.08;;
19113;SDS011;9689;51.052;13.772;2023-07-24T01:34:13;4.70;;;2.97;;
19113;SDS011;9689;51.052;13.772;2023-07-24T01:39:14;9.52;;;3.75;;
19113;SDS011;9689;51.052;13.772;2023-07-24T01:44:17;4.65;;;2.95;;
19113;SDS011;9689;51.052;13.772;2023-07-24T01:49:19;4.45;;;2.80;;
19113;SDS011;9689;51.052;13.772;2023-07-24T01:54:20;5.45;;;3.08;;
19113;SDS011;9689;51.052;13.772;2023-07-24T01:59:23;7.00;;;3.30;;
19113;SDS011;9689;51.052;13.772;2023-07-24T02:04:23;5.05;;;3.13;;
19113;SDS011;9689;51.052;13.772;2023-07-24T02:09:24;5.75;;;3.13;;
19113;SDS011;9689;51.052;13.772;2023-07-24T02:14:26;5.22;;;3.03;;
19113;SDS011;9689;51.052;13.772;2023-07-24T02:19:27;4.30;;;2.65;;
19113;SDS011;9689;51.052;13.772;2023-07-24T02:24:28;4.75;;;2.60;;
19113;SDS011;9689;51.052;13.772;2023-07-24T02:29:31;8.02;;;3.10;;
19113;SDS011;9689;51.052;13.772;2023-07-24T02:34:32;5.40;;;3.20;;
19113;SDS011;9689;51.052;13.772;2023-07-24T02:39:33;4.22;;;2.90;;
19113;SDS011;9689;51.052;13.772;2023-07-24T02:44:35;4.15;;;2.72;;
19113;SDS011;9689;51.052;13.772;2023-07-24T02:49:36;4.93;;;3.10;;
19113;SDS011;9689;51.052;13.772;2023-07-24T02:54:37;6.80;;;2.70;;
19113;SDS011;9689;51.052;13.772;2023-07-24T02:59:40;5.85;;;3.13;;
19113;SDS011;9689;51.052;13.772;2023-07-24T03:04:40;7.45;;;3.25;;
19113;SDS011;9689;51.052;13.772;2023-07-24T03:09:41;3.97;;;2.70;;
19113;SDS011;9689;51.052;13.772;2023-07-24T03:14:43;4.05;;;2.70;;
19113;SDS011;9689;51.052;13.772;2023-07-24T03:19:44;5.10;;;3.58;;
19113;SDS011;9689;51.052;13.772;2023-07-24T03:24:45;6.15;;;3.45;;
19113;SDS011;9689;51.052;13.772;2023-07-24T03:29:47;5.30;;;3.42;;
19113;SDS011;9689;51.052;13.772;2023-07-24T03:34:48;6.35;;;3.30;;
19113;SDS011;9689;51.052;13.772;2023-07-24T03:39:49;4.55;;;2.88;;
19113;SDS011;9689;51.052;13.772;2023-07-24T03:44:52;4.40;;;2.95;;
19113;SDS011;9689;51.052;13.772;2023-07-24T03:49:53;5.47;;;3.15;;
19113;SDS011;9689;51.052;13.772;2023-07-24T03:54:54;5.95;;;3.40;;
19113;SDS011;9689;51.052;13.772;2023-07-24T03:59:56;5.85;;;3.40;;
19113;SDS011;9689;51.052;13.772;2023-07-24T04:04:57;6.47;;;3.35;;
19113;SDS011;9689;51.052;13.772;2023-07-24T04:09:58;5.07;;;3.05;;
19113;SDS011;9689;51.052;13.772;2023-07-24T04:15:00;5.78;;;3.13;;
19113;SDS011;9689;51.052;13.772;2023-07-24T04:20:00;8.45;;;3.20;;
19113;SDS011;9689;51.052;13.772;2023-07-24T04:25:02;6.43;;;3.90;;
19113;SDS011;9689;51.052;13.772;2023-07-24T04:30:06;6.00;;;3.35;;
19113;SDS011;9689;51.052;13.772;2023-07-24T04:35:07;5.00;;;3.03;;
19113;SDS011;9689;51.052;13.772;2023-07-24T04:40:09;6.03;;;3.15;;
19113;SDS011;9689;51.052;13.772;2023-07-24T04:45:11;5.50;;;3.38;;
19113;SDS011;9689;51.052;13.772;2023-07-24T04:50:12;5.80;;;3.00;;
19113;SDS011;9689;51.052;13.772;2023-07-24T04:55:13;6.05;;;3.30;;
19113;SDS011;9689;51.052;13.772;2023-07-24T05:00:15;10.68;;;3.67;;
19113;SDS011;9689;51.052;13.772;2023-07-24T05:05:16;4.18;;;3.00;;
19113;SDS011;9689;51.052;13.772;2023-07-24T05:10:17;5.32;;;3.10;;
19113;SDS011;9689;51.052;13.772;2023-07-24T05:15:19;7.22;;;3.58;;
19113;SDS011;9689;51.052;13.772;2023-07-24T05:20:20;8.77;;;3.22;;
19113;SDS011;9689;51.052;13.772;2023-07-24T05:25:21;5.18;;;3.17;;
19113;SDS011;9689;51.052;13.772;2023-07-24T05:30:23;8.10;;;3.13;;
19113;SDS011;9689;51.052;13.772;2023-07-24T05:35:24;6.95;;;3.70;;
19113;SDS011;9689;51.052;13.772;2023-07-24T05:40:24;5.85;;;3.67;;
19113;SDS011;9689;51.052;13.772;2023-07-24T05:45:27;7.63;;;3.25;;
19113;SDS011;9689;51.052;13.772;2023-07-24T05:50:28;5.78;;;3.30;;
19113;SDS011;9689;51.052;13.772;2023-07-24T05:55:29;6.93;;;4.07;;
19113;SDS011;9689;51.052;13.772;2023-07-24T06:00:31;8.77;;;3.80;;
19113;SDS011;9689;51.052;13.772;2023-07-24T06:05:32;6.35;;;3.47;;
19113;SDS011;9689;51.052;13.772;2023-07-24T06:10:33;10.35;;;4.40;;
19113;SDS011;9689;51.052;13.772;2023-07-24T06:15:35;7.72;;;4.22;;
19113;SDS011;9689;51.052;13.772;2023-07-24T06:20:36;9.30;;;3.75;;
19113;SDS011;9689;51.052;13.772;2023-07-24T06:25:36;9.45;;;3.50;;
19113;SDS011;9689;51.052;13.772;2023-07-24T06:30:39;7.90;;;3.17;;
19113;SDS011;9689;51.052;13.772;2023-07-24T06:35:39;7.40;;;3.83;;
19113;SDS011;9689;51.052;13.772;2023-07-24T06:40:41;7.50;;;3.28;;
19113;SDS011;9689;51.052;13.772;2023-07-24T06:45:43;9.75;;;3.60;;
19113;SDS011;9689;51.052;13.772;2023-07-24T06:50:44;6.95;;;3.42;;
19113;SDS011;9689;51.052;13.772;2023-07-24T06:55:44;8.32;;;4.35;;
19113;SDS011;9689;51.052;13.772;2023-07-24T07:00:46;8.40;;;4.10;;
19113;SDS011;9689;51.052;13.772;2023-07-24T07:05:47;7.25;;;4.00;;
19113;SDS011;9689;51.052;13.772;2023-07-24T07:10:54;6.00;;;3.25;;
19113;SDS011;9689;51.052;13.772;2023-07-24T07:15:56;7.30;;;4.13;;
19113;SDS011;9689;51.052;13.772;2023-07-24T07:20:58;5.47;;;3.65;;
19113;SDS011;9689;51.052;13.772;2023-07-24T07:25:59;5.88;;;3.75;;
19113;SDS011;9689;51.052;13.772;2023-07-24T07:31:01;6.90;;;3.63;;
19113;SDS011;9689;51.052;13.772;2023-07-24T07:36:02;8.20;;;3.83;;
19113;SDS011;9689;51.052;13.772;2023-07-24T07:41:05;6.55;;;3.92;;
19113;SDS011;9689;51.052;13.772;2023-07-24T07:46:07;5.32;;;3.45;;
19113;SDS011;9689;51.052;13.772;2023-07-24T07:51:08;6.53;;;3.63;;
19113;SDS011;9689;51.052;13.772;2023-07-24T07:56:09;6.80;;;3.55;;
19113;SDS011;9689;51.052;13.772;2023-07-24T08:01:11;7.10;;;3.95;;
19113;SDS011;9689;51.052;13.772;2023-07-24T08:06:12;10.93;;;4.20;;
19113;SDS011;9689;51.052;13.772;2023-07-24T08:11:13;6.00;;;3.47;;
19113;SDS011;9689;51.052;13.772;2023-07-24T08:16:15;7.53;;;4.25;;
19113;SDS011;9689;51.052;13.772;2023-07-24T08:21:18;4.97;;;3.40;;
19113;SDS011;9689;51.052;13.772;2023-07-24T08:26:18;4.97;;;3.25;;
19113;SDS011;9689;51.052;13.772;2023-07-24T08:31:20;7.05;;;3.78;;
19113;SDS011;9689;51.052;13.772;2023-07-24T08:36:21;11.63;;;4.15;;
19113;SDS011;9689;51.052;13.772;2023-07-24T08:41:22;5.63;;;3.97;;
19113;SDS011;9689;51.052;13.772;2023-07-24T08:46:24;5.18;;;3.60;;
19113;SDS011;9689;51.052;13.772;2023-07-24T08:51:26;6.00;;;3.90;;
19113;SDS011;9689;51.052;13.772;2023-07-24T08:56:28;6.57;;;3.88;;
19113;SDS011;9689;51.052;13.772;2023-07-24T09:01:31;4.53;;;3.33;;
19113;SDS011;9689;51.052;13.772;2023-07-24T09:06:32;5.45;;;3.80;;
19113;SDS011;9689;51.052;13.772;2023-07-24T09:11:32;6.03;;;4.10;;
19113;SDS011;9689;51.052;13.772;2023-07-24T09:16:46;8.80;;;4.20;;
19113;SDS011;9689;51.052;13.772;2023-07-24T09:21:47;9.52;;;4.57;;
19113;SDS011;9689;51.052;13.772;2023-07-24T09:26:48;6.35;;;3.80;;
19113;SDS011;9689;51.052;13.772;2023-07-24T09:31:52;4.43;;;3.65;;
19113;SDS011;9689;51.052;13.772;2023-07-24T09:36:53;5.70;;;3.63;;
19113;SDS011;9689;51.052;13.772;2023-07-24T09:42:02;6.82;;;4.20;;
19113;SDS011;9689;51.052;13.772;2023-07-24T09:47:04;9.25;;;4.47;;
19113;SDS011;9689;51.052;13.772;2023-07-24T09:52:27;8.38;;;4.43;;
19113;SDS011;9689;51.052;13.772;2023-07-24T09:57:29;7.25;;;4.60;;
19113;SDS011;9689;51.052;13.772;2023-07-24T10:02:32;8.82;;;4.53;;
19113;SDS011;9689;51.052;13.772;2023-07-24T10:07:33;8.82;;;5.63;;
19113;SDS011;9689;51.052;13.772;2023-07-24T10:12:34;8.23;;;5.00;;
19113;SDS011;9689;51.052;13.772;2023-07-24T10:17:38;8.88;;;4.93;;
19113;SDS011;9689;51.052;13.772;2023-07-24T10:22:40;10.85;;;5.57;;
19113;SDS011;9689;51.052;13.772;2023-07-24T10:27:42;9.95;;;4.80;;
19113;SDS011;9689;51.052;13.772;2023-07-24T10:32:46;8.95;;;5.15;;
19113;SDS011;9689;51.052;13.772;2023-07-24T10:37:58;11.27;;;5.85;;
19113;SDS011;9689;51.052;13.772;2023-07-24T10:43:00;8.07;;;4.68;;
19113;SDS011;9689;51.052;13.772;2023-07-24T10:48:06;14.73;;;5.40;;
19113;SDS011;9689;51.052;13.772;2023-07-24T10:53:11;8.68;;;5.63;;
19113;SDS011;9689;51.052;13.772;2023-07-24T10:58:15;11.30;;;6.45;;
19113;SDS011;9689;51.052;13.772;2023-07-24T11:03:17;11.15;;;4.80;;
19113;SDS011;9689;51.052;13.772;2023-07-24T11:08:18;11.65;;;5.93;;
19113;SDS011;9689;51.052;13.772;2023-07-24T11:13:20;11.00;;;6.70;;
19113;SDS011;9689;51.052;13.772;2023-07-24T11:18:24;9.05;;;5.25;;
19113;SDS011;9689;51.052;13.772;2023-07-24T11:23:47;8.25;;;4.68;;
19113;SDS011;9689;51.052;13.772;2023-07-24T11:28:49;9.60;;;5.22;;
19113;SDS011;9689;51.052;13.772;2023-07-24T11:33:52;14.40;;;6.55;;
19113;SDS011;9689;51.052;13.772;2023-07-24T11:38:53;10.32;;;5.38;;
19113;SDS011;9689;51.052;13.772;2023-07-24T11:43:54;10.73;;;6.07;;
19113;SDS011;9689;51.052;13.772;2023-07-24T11:48:57;10.38;;;6.03;;
19113;SDS011;9689;51.052;13.772;2023-07-24T11:54:05;9.40;;;5.53;;
19113;SDS011;9689;51.052;13.772;2023-07-24T11:59:10;8.60;;;5.88;;
19113;SDS011;9689;51.052;13.772;2023-07-24T12:04:14;12.32;;;5.75;;
19113;SDS011;9689;51.052;13.772;2023-07-24T12:09:15;10.30;;;6.13;;
19113;SDS011;9689;51.052;13.772;2023-07-24T12:14:16;10.77;;;5.97;;
19113;SDS011;9689;51.052;13.772;2023-07-24T12:19:18;11.15;;;5.97;;
19113;SDS011;9689;51.052;13.772;2023-07-24T12:24:19;12.05;;;6.03;;
19113;SDS011;9689;51.052;13.772;2023-07-24T12:29:20;17.42;;;6.40;;
19113;SDS011;9689;51.052;13.772;2023-07-24T12:34:22;12.05;;;6.97;;
19113;SDS011;9689;51.052;13.772;2023-07-24T12:39:23;11.43;;;6.22;;
19113;SDS011;9689;51.052;13.772;2023-07-24T12:44:23;13.02;;;6.60;;
19113;SDS011;9689;51.052;13.772;2023-07-24T12:49:26;14.55;;;7.38;;
19113;SDS011;9689;51.052;13.772;2023-07-24T12:54:27;11.20;;;6.15;;
19113;SDS011;9689;51.052;13.772;2023-07-24T12:59:48;12.35;;;6.70;;
19113;SDS011;9689;51.052;13.772;2023-07-24T13:04:50;16.38;;;6.15;;
19113;SDS011;9689;51.052;13.772;2023-07-24T13:09:52;16.33;;;6.53;;
19113;SDS011;9689;51.052;13.772;2023-07-24T13:14:53;14.18;;;6.70;;
19113;SDS011;9689;51.052;13.772;2023-07-24T13:19:56;10.73;;;5.95;;
19113;SDS011;9689;51.052;13.772;2023-07-24T13:24:56;12.73;;;6.60;;
19113;SDS011;9689;51.052;13.772;2023-07-24T13:29:57;16.70;;;7.55;;
19113;SDS011;9689;51.052;13.772;2023-07-24T13:35:00;13.88;;;6.43;;
19113;SDS011;9689;51.052;13.772;2023-07-24T13:40:01;11.82;;;6.68;;
19113;SDS011;9689;51.052;13.772;2023-07-24T13:45:02;10.52;;;5.57;;
19113;SDS011;9689;51.052;13.772;2023-07-24T13:50:05;9.30;;;5.28;;
19113;SDS011;9689;51.052;13.772;2023-07-24T13:55:07;10.20;;;5.43;;
19113;SDS011;9689;51.052;13.772;2023-07-24T14:00:08;9.48;;;5.72;;
19113;SDS011;9689;51.052;13.772;2023-07-24T14:05:15;8.88;;;5.15;;
19113;SDS011;9689;51.052;13.772;2023-07-24T14:10:16;6.32;;;4.18;;
19113;SDS011;9689;51.052;13.772;2023-07-24T14:15:17;6.20;;;3.50;;
19113;SDS011;9689;51.052;13.772;2023-07-24T14:20:19;6.38;;;3.92;;
19113;SDS011;9689;51.052;13.772;2023-07-24T14:25:19;5.72;;;3.15;;
19113;SDS011;9689;51.052;13.772;2023-07-24T14:30:20;6.53;;;3.38;;
19113;SDS011;9689;51.052;13.772;2023-07-24T14:35:22;6.13;;;3.70;;
19113;SDS011;9689;51.052;13.772;2023-07-24T14:40:23;7.05;;;4.15;;
19113;SDS011;9689;51.052;13.772;2023-07-24T14:45:24;7.13;;;4.57;;
19113;SDS011;9689;51.052;13.772;2023-07-24T14:50:26;10.43;;;4.88;;
19113;SDS011;9689;51.052;13.772;2023-07-24T14:55:27;8.52;;;5.45;;
19113;SDS011;9689;51.052;13.772;2023-07-24T15:00:29;7.45;;;4.38;;
19113;SDS011;9689;51.052;13.772;2023-07-24T15:05:31;6.93;;;4.43;;
19113;SDS011;9689;51.052;13.772;2023-07-24T15:10:33;7.30;;;4.88;;
19113;SDS011;9689;51.052;13.772;2023-07-24T15:15:34;7.93;;;5.10;;
19113;SDS011;9689;51.052;13.772;2023-07-24T15:20:39;11.27;;;5.35;;
19113;SDS011;9689;51.052;13.772;2023-07-24T15:25:40;7.72;;;5.25;;
19113;SDS011;9689;51.052;13.772;2023-07-24T15:30:42;9.05;;;4.93;;
19113;SDS011;9689;51.052;13.772;2023-07-24T15:35:44;13.43;;;5.57;;
19113;SDS011;9689;51.052;13.772;2023-07-24T15:40:45;9.13;;;5.68;;
19113;SDS011;9689;51.052;13.772;2023-07-24T15:45:46;10.20;;;6.10;;
19113;SDS011;9689;51.052;13.772;2023-07-24T15:50:48;10.95;;;6.25;;
19113;SDS011;9689;51.052;13.772;2023-07-24T15:55:49;12.15;;;5.90;;
19113;SDS011;9689;51.052;13.772;2023-07-24T16:01:08;8.43;;;5.18;;
19113;SDS011;9689;51.052;13.772;2023-07-24T16:06:10;9.77;;;6.40;;
19113;SDS011;9689;51.052;13.772;2023-07-24T16:11:11;11.63;;;5.68;;
19113;SDS011;9689;51.052;13.772;2023-07-24T16:16:13;12.48;;;6.03;;
19113;SDS011;9689;51.052;13.772;2023-07-24T16:21:15;9.35;;;6.03;;
19113;SDS011;9689;51.052;13.772;2023-07-24T16:26:17;9.90;;;5.93;;
19113;SDS011;9689;51.052;13.772;2023-07-24T16:31:17;10.38;;;5.97;;
19113;SDS011;9689;51.052;13.772;2023-07-24T16:36:20;9.52;;;6.38;;
19113;SDS011;9689;51.052;13.772;2023-07-24T16:41:22;9.07;;;6.03;;
19113;SDS011;9689;51.052;13.772;2023-07-24T16:46:23;10.05;;;6.68;;
19113;SDS011;9689;51.052;13.772;2023-07-24T16:51:26;10.50;;;6.40;;
19113;SDS011;9689;51.052;13.772;2023-07-24T16:56:27;14.23;;;7.68;;
19113;SDS011;9689;51.052;13.772;2023-07-24T17:01:28;9.68;;;6.55;;
19113;SDS011;9689;51.052;13.772;2023-07-24T17:06:31;10.73;;;6.57;;
19113;SDS011;9689;51.052;13.772;2023-07-24T17:11:32;11.68;;;7.57;;
19113;SDS011;9689;51.052;13.772;2023-07-24T17:16:33;12.43;;;7.18;;
19113;SDS011;9689;51.052;13.772;2023-07-24T17:21:35;13.77;;;6.57;;
19113;SDS011;9689;51.052;13.772;2023-07-24T17:26:36;12.05;;;6.90;;
19113;SDS011;9689;51.052;13.772;2023-07-24T17:31:37;11.88;;;7.50;;
19113;SDS011;9689;51.052;13.772;2023-07-24T17:36:43;12.13;;;6.65;;
19113;SDS011;9689;51.052;13.772;2023-07-24T17:41:43;11.93;;;6.30;;
19113;SDS011;9689;51.052;13.772;2023-07-24T17:46:44;12.80;;;7.43;;
19113;SDS011;9689;51.052;13.772;2023-07-24T17:51:46;10.88;;;7.10;;
19113;SDS011;9689;51.052;13.772;2023-07-24T17:56:47;10.55;;;7.30;;
19113;SDS011;9689;51.052;13.772;2023-07-24T18:01:48;13.95;;;8.20;;
19113;SDS011;9689;51.052;13.772;2023-07-24T18:06:50;14.13;;;7.07;;
19113;SDS011;9689;51.052;13.772;2023-07-24T18:11:51;12.05;;;6.90;;
19113;SDS011;9689;51.052;13.772;2023-07-24T18:16:53;15.27;;;7.13;;
19113;SDS011;9689;51.052;13.772;2023-07-24T18:21:55;11.25;;;6.55;;
19113;SDS011;9689;51.052;13.772;2023-07-24T18:26:56;10.43;;;6.45;;
19113;SDS011;9689;51.052;13.772;2023-07-24T18:31:56;12.30;;;6.72;;
19113;SDS011;9689;51.052;13.772;2023-07-24T18:36:59;12.40;;;7.25;;
19113;SDS011;9689;51.052;13.772;2023-07-24T18:41:59;11.30;;;6.55;;
19113;SDS011;9689;51.052;13.772;2023-07-24T18:47:00;9.57;;;5.68;;
19113;SDS011;9689;51.052;13.772;2023-07-24T18:52:04;11.27;;;6.65;;
19113;SDS011;9689;51.052;13.772;2023-07-24T18:57:05;12.07;;;6.40;;
19113;SDS011;9689;51.052;13.772;2023-07-24T19:02:07;11.05;;;6.22;;
19113;SDS011;9689;51.052;13.772;2023-07-24T19:07:09;15.57;;;6.57;;
19113;SDS011;9689;51.052;13.772;2023-07-24T19:12:10;17.40;;;4.13;;
19113;SDS011;9689;51.052;13.772;2023-07-24T19:17:11;13.48;;;2.30;;
19113;SDS011;9689;51.052;13.772;2023-07-24T19:22:13;6.32;;;2.65;;
19113;SDS011;9689;51.052;13.772;2023-07-24T19:27:16;7.95;;;2.47;;
19113;SDS011;9689;51.052;13.772;2023-07-24T19:32:17;10.05;;;2.35;;
19113;SDS011;9689;51.052;13.772;2023-07-24T19:37:21;8.93;;;2.58;;
19113;SDS011;9689;51.052;13.772;2023-07-24T19:42:22;4.80;;;2.13;;
19113;SDS011;9689;51.052;13.772;2023-07-24T19:47:23;9.48;;;2.50;;
19113;SDS011;9689;51.052;13.772;2023-07-24T19:52:26;5.85;;;2.47;;
19113;SDS011;9689;51.052;13.772;2023-07-24T19:57:30;6.47;;;2.00;;
19113;SDS011;9689;51.052;13.772;2023-07-24T20:02:32;7.53;;;2.10;;
19113;SDS011;9689;51.052;13.772;2023-07-24T20:07:35;4.78;;;2.25;;
19113;SDS011;9689;51.052;13.772;2023-07-24T20:12:36;7.72;;;2.53;;
19113;SDS011;9689;51.052;13.772;2023-07-24T20:17:44;7.22;;;2.63;;
19113;SDS011;9689;51.052;13.772;2023-07-24T20:22:46;8.63;;;2.40;;
19113;SDS011;9689;51.052;13.772;2023-07-24T20:27:48;5.93;;;2.47;;
19113;SDS011;9689;51.052;13.772;2023-07-24T20:32:49;7.90;;;2.72;;
19113;SDS011;9689;51.052;13.772;2023-07-24T20:37:52;7.35;;;2.90;;
19113;SDS011;9689;51.052;13.772;2023-07-24T20:42:54;4.68;;;2.58;;
19113;SDS011;9689;51.052;13.772;2023-07-24T20:47:55;7.07;;;3.00;;
19113;SDS011;9689;51.052;13.772;2023-07-24T20:52:58;4.03;;;2.20;;
19113;SDS011;9689;51.052;13.772;2023-07-24T20:57:59;8.15;;;2.70;;
19113;SDS011;9689;51.052;13.772;2023-07-24T21:03:00;4.90;;;2.33;;
19113;SDS011;9689;51.052;13.772;2023-07-24T21:08:03;6.25;;;2.13;;
19113;SDS011;9689;51.052;13.772;2023-07-24T21:13:05;5.53;;;2.35;;
19113;SDS011;9689;51.052;13.772;2023-07-24T21:18:05;4.93;;;2.30;;
19113;SDS011;9689;51.052;13.772;2023-07-24T21:23:07;5.10;;;2.35;;
19113;SDS011;9689;51.052;13.772;2023-07-24T21:28:08;4.18;;;2.30;;
19113;SDS011;9689;51.052;13.772;2023-07-24T21:33:10;6.85;;;2.67;;
19113;SDS011;9689;51.052;13.772;2023-07-24T21:38:12;4.07;;;2.17;;
19113;SDS011;9689;51.052;13.772;2023-07-24T21:43:13;5.00;;;2.72;;
19113;SDS011;9689;51.052;13.772;2023-07-24T21:48:14;4.20;;;2.30;;
19113;SDS011;9689;51.052;13.772;2023-07-24T21:53:16;3.70;;;2.15;;
19113;SDS011;9689;51.052;13.772;2023-07-24T21:58:18;5.07;;;2.15;;
19113;SDS011;9689;51.052;13.772;2023-07-24T22:03:18;3.25;;;1.88;;
19113;SDS011;9689;51.052;13.772;2023-07-24T22:08:21;3.63;;;1.88;;
19113;SDS011;9689;51.052;13.772;2023-07-24T22:13:22;4.32;;;2.33;;
19113;SDS011;9689;51.052;13.772;2023-07-24T22:18:22;5.15;;;2.50;;
19113;SDS011;9689;51.052;13.772;2023-07-24T22:23:26;4.82;;;2.40;;
19113;SDS011;9689;51.052;13.772;2023-07-24T22:28:27;3.70;;;2.50;;
19113;SDS011;9689;51.052;13.772;2023-07-24T22:33:28;10.90;;;3.08;;
19113;SDS011;9689;51.052;13.772;2023-07-24T22:38:31;5.55;;;2.60;;
19113;SDS011;9689;51.052;13.772;2023-07-24T22:43:32;6.70;;;2.42;;
19113;SDS011;9689;51.052;13.772;2023-07-24T22:48:33;4.55;;;2.53;;
19113;SDS011;9689;51.052;13.772;2023-07-24T22:53:35;6.80;;;2.70;;
19113;SDS011;9689;51.052;13.772;2023-07-24T22:58:55;4.68;;;2.50;;
19113;SDS011;9689;51.052;13.772;2023-07-24T23:04:20;5.65;;;2.25;;
19113;SDS011;9689;51.052;13.772;2023-07-24T23:09:25;4.90;;;2.55;;
19113;SDS011;9689;51.052;13.772;2023-07-24T23:14:26;3.10;;;2.30;;
19113;SDS011;9689;51.052;13.772;2023-07-24T23:19:26;5.38;;;2.90;;
19113;SDS011;9689;51.052;13.772;2023-07-24T23:24:28;4.68;;;2.85;;
19113;SDS011;9689;51.052;13.772;2023-07-24T23:29:29;4.05;;;2.40;;
19113;SDS011;9689;51.052;13.772;2023-07-24T23:34:32;6.93;;;2.40;;
19113;SDS011;9689;51.052;13.772;2023-07-24T23:39:34;5.75;;;2.88;;
19113;SDS011;9689;51.052;13.772;2023-07-24T23:44:35;5.03;;;2.42;;
19113;SDS011;9689;51.052;13.772;2023-07-24T23:49:36;6.20;;;2.47;;
19113;SDS011;9689;51.052;13.772;2023-07-24T23:54:38;5.20;;;2.60;;
19113;SDS011;9689;51.052;13.772;2023-07-24T23:59:39;6.18;;;2.33;;
